Terminal Aerodrome Forecast
Issued by NWS Hastings, NE

Home | Current Version | Previous Version | Text Only | Print | Product List | Glossary On
Versions: 1 2 3 4 5 6 7 8 9 10 11 12 13 14 15 16 17
755
FTUS45 KGID 261507 AAA
TAFEAR
TAF AMD
KEAR 261507Z 2615/2712 VRB03KT 2SM BR OVC004
     FM261900 10004KT 6SM BR OVC006
     FM262100 06005KT P6SM BKN025
     FM270800 01005KT P6SM BKN015
      AMD LTD TO CLD VIS AND WIND=

USA.gov is the U.S. government's official web portal to all federal, state and local government web resources and services.